createdAt,value
2019-02-21T00:02:41.427Z,16.93
2019-02-21T00:06:44.732Z,14.77
2019-02-21T00:10:48.121Z,21.67
2019-02-21T00:14:51.468Z,15.63
2019-02-21T00:18:54.762Z,16.87
2019-02-21T00:22:58.062Z,16.50
2019-02-21T00:27:01.682Z,16.33
2019-02-21T00:31:05.067Z,17.77
2019-02-21T00:35:08.358Z,16.10
2019-02-21T00:39:12.107Z,17.57
2019-02-21T00:43:15.831Z,18.93
2019-02-21T00:47:19.126Z,17.83
2019-02-21T00:51:22.714Z,17.03
2019-02-21T00:55:27.905Z,18.53
2019-02-21T00:59:31.310Z,18.00
2019-02-21T01:03:35.030Z,18.07
2019-02-21T01:07:38.754Z,18.60
2019-02-21T01:11:42.426Z,18.07
2019-02-21T01:15:45.714Z,19.87
2019-02-21T01:19:49.457Z,20.90
2019-02-21T01:23:52.739Z,20.70
2019-02-21T01:27:57.255Z,21.23
2019-02-21T01:32:00.606Z,21.73
2019-02-21T01:36:03.991Z,24.30
2019-02-21T01:40:07.370Z,21.43
2019-02-21T01:44:10.918Z,22.50
2019-02-21T01:48:14.690Z,22.70
2019-02-21T01:52:18.036Z,22.10
2019-02-21T01:56:21.323Z,22.37
2019-02-21T02:00:25.047Z,23.33
2019-02-21T02:04:28.334Z,22.23
2019-02-21T02:08:32.307Z,24.20
2019-02-21T02:12:36.086Z,22.00
2019-02-21T02:16:39.367Z,24.50
2019-02-21T02:20:42.939Z,24.93
2019-02-21T02:24:46.226Z,25.20
2019-02-21T02:28:49.530Z,25.00
2019-02-21T02:32:53.143Z,24.27
2019-02-21T02:36:56.877Z,24.13
2019-02-21T02:41:00.178Z,27.37
2019-02-21T02:45:04.053Z,26.53
2019-02-21T02:49:07.835Z,26.23
2019-02-21T02:53:11.398Z,24.57
2019-02-21T02:57:14.699Z,31.07
2019-02-21T03:01:18.223Z,29.47
2019-02-21T03:05:22.542Z,31.70
2019-02-21T03:09:25.918Z,29.50
2019-02-21T03:13:29.219Z,30.20
2019-02-21T03:17:32.835Z,26.83
2019-02-21T03:21:36.123Z,28.60
2019-02-21T03:25:39.427Z,30.60
2019-02-21T03:29:43.168Z,28.67
2019-02-21T03:33:46.793Z,29.27
2019-02-21T03:37:50.091Z,31.00
2019-02-21T03:41:53.367Z,29.17
2019-02-21T03:45:56.671Z,28.27
2019-02-21T03:49:59.960Z,27.20
2019-02-21T03:54:03.751Z,29.90
2019-02-21T03:58:07.036Z,28.43
2019-02-21T04:02:11.035Z,29.77
2019-02-21T04:06:14.410Z,28.43
2019-02-21T04:10:17.706Z,27.67
2019-02-21T04:14:21.936Z,29.00
2019-02-21T04:18:25.693Z,29.37
2019-02-21T04:22:29.299Z,29.10
2019-02-21T04:26:32.594Z,28.23
2019-02-21T04:30:35.892Z,28.73
2019-02-21T04:34:39.183Z,29.40
2019-02-21T04:38:42.698Z,30.17
2019-02-21T04:42:47.015Z,29.10
2019-02-21T04:46:50.748Z,29.80
2019-02-21T04:50:54.553Z,30.77
2019-02-21T04:54:58.066Z,29.43
2019-02-21T04:59:01.365Z,29.37
2019-02-21T05:03:04.650Z,29.37
2019-02-21T05:07:08.471Z,27.10
2019-02-21T05:11:12.278Z,29.30
2019-02-21T05:15:15.587Z,30.77
2019-02-21T05:19:19.446Z,30.90
2019-02-21T05:23:22.745Z,31.30
2019-02-21T05:27:37.990Z,29.63
2019-02-21T05:32:00.808Z,29.80
2019-02-21T05:36:32.554Z,30.07
2019-02-21T05:40:58.238Z,28.17
2019-02-21T05:45:32.955Z,28.53
2019-02-21T05:50:05.103Z,29.70
2019-02-21T05:54:16.695Z,27.40
2019-02-21T05:58:32.826Z,26.60
2019-02-21T06:02:53.300Z,26.30
2019-02-21T06:07:28.752Z,27.90
2019-02-21T06:11:39.395Z,26.30
2019-02-21T06:15:59.626Z,26.60
2019-02-21T06:20:22.795Z,27.20
2019-02-21T06:24:34.242Z,25.43
2019-02-21T06:28:46.678Z,28.17
2019-02-21T06:32:50.455Z,24.97
2019-02-21T06:36:54.523Z,26.50
2019-02-21T06:40:58.074Z,25.97
2019-02-21T06:45:01.830Z,27.03
2019-02-21T06:49:05.178Z,27.50
2019-02-21T06:53:08.483Z,28.70
2019-02-21T06:57:11.777Z,27.80
2019-02-21T07:01:25.444Z,28.40
2019-02-21T07:05:20.102Z,28.20
2019-02-21T07:09:23.827Z,29.37
2019-02-21T07:13:27.807Z,29.33
2019-02-21T07:17:31.358Z,27.63
2019-02-21T07:21:36.523Z,27.40
2019-02-21T07:25:55.425Z,28.50
2019-02-21T07:29:58.719Z,30.03
2019-02-21T07:34:02.235Z,28.90
2019-02-21T07:38:05.543Z,29.53
2019-02-21T07:42:08.847Z,28.73
2019-02-21T07:46:12.567Z,30.20
2019-02-21T07:50:15.950Z,30.37
2019-02-21T07:54:19.678Z,26.67
2019-02-21T07:58:22.987Z,30.57
2019-02-21T08:02:26.278Z,28.33
2019-02-21T08:06:29.562Z,29.07
2019-02-21T08:10:34.037Z,28.93
2019-02-21T08:14:38.046Z,30.90
2019-02-21T08:18:41.342Z,28.47
2019-02-21T08:22:44.654Z,28.97
2019-02-21T08:26:47.942Z,32.00
2019-02-21T08:30:51.983Z,29.50
2019-02-21T08:34:55.714Z,29.37
2019-02-21T08:38:59.438Z,29.50
2019-02-21T08:43:04.063Z,27.00
2019-02-21T08:47:08.063Z,27.27
2019-02-21T08:51:11.647Z,26.47
2019-02-21T08:55:14.947Z,28.83
2019-02-21T08:59:18.256Z,27.47
2019-02-21T09:03:22.456Z,27.60
2019-02-21T09:07:26.187Z,29.03
2019-02-21T09:11:29.482Z,29.93
2019-02-21T09:15:33.210Z,32.73
2019-02-21T09:19:36.881Z,41.57
2019-02-21T09:23:40.308Z,36.80
2019-02-21T09:27:44.039Z,37.10
2019-02-21T09:31:47.342Z,39.67
2019-02-21T09:35:50.618Z,39.70
2019-02-21T09:39:53.922Z,41.17
2019-02-21T09:43:57.202Z,43.13
2019-02-21T09:48:00.522Z,43.03
2019-02-21T09:52:04.523Z,46.07
2019-02-21T09:56:07.928Z,43.50
2019-02-21T10:00:15.358Z,45.30
2019-02-21T10:04:19.374Z,45.90
2019-02-21T10:08:22.967Z,42.23
2019-02-21T10:12:26.262Z,42.10
2019-02-21T10:16:29.564Z,41.67
2019-02-21T10:20:32.926Z,39.50
2019-02-21T10:24:36.239Z,40.33
2019-02-21T10:28:39.523Z,42.30
2019-02-21T10:32:42.822Z,42.03
2019-02-21T10:36:46.559Z,43.70
2019-02-21T10:40:49.859Z,38.80
2019-02-21T10:44:53.603Z,36.23
2019-02-21T10:48:57.618Z,39.30
2019-02-21T10:53:00.970Z,37.80
2019-02-21T10:57:04.375Z,36.73
2019-02-21T11:01:07.734Z,36.00
2019-02-21T11:05:11.906Z,35.33
2019-02-21T11:09:22.654Z,33.67
2019-02-21T11:13:26.460Z,34.33
2019-02-21T11:17:30.530Z,35.70
2019-02-21T11:21:34.607Z,34.23
2019-02-21T11:25:38.647Z,32.20
2019-02-21T11:29:41.954Z,36.20
2019-02-21T11:33:45.698Z,36.63
2019-02-21T11:37:49.001Z,37.77
2019-02-21T11:41:52.303Z,35.87
2019-02-21T11:45:57.443Z,36.03
2019-02-21T11:50:00.943Z,35.67
2019-02-21T11:54:04.231Z,33.90
2019-02-21T11:58:07.971Z,38.23
2019-02-21T12:02:11.463Z,37.27
2019-02-21T12:06:15.218Z,40.13
2019-02-21T12:10:19.489Z,40.60
2019-02-21T12:14:23.234Z,43.57
2019-02-21T12:18:26.519Z,43.97
2019-02-21T12:22:29.819Z,45.50
2019-02-21T12:26:33.127Z,44.60
2019-02-21T12:30:36.443Z,45.97
2019-02-21T12:34:39.702Z,42.87
2019-02-21T12:38:43.041Z,42.87
2019-02-21T12:42:46.386Z,41.00
2019-02-21T12:46:49.746Z,37.40
2019-02-21T12:50:53.063Z,36.73
2019-02-21T12:54:56.818Z,33.93
2019-02-21T12:59:00.114Z,32.70
2019-02-21T13:03:04.462Z,32.93
2019-02-21T13:07:07.759Z,33.90
2019-02-21T13:11:11.138Z,30.80
2019-02-21T13:15:14.502Z,32.00
2019-02-21T13:19:17.790Z,30.37
2019-02-21T13:23:21.446Z,32.80
2019-02-21T13:27:24.758Z,32.53
2019-02-21T13:31:28.543Z,33.57
2019-02-21T13:35:32.346Z,34.93
2019-02-21T13:39:35.931Z,34.57
2019-02-21T13:43:40.001Z,33.23
2019-02-21T13:47:43.773Z,30.97
2019-02-21T13:51:47.382Z,31.10
2019-02-21T13:55:51.135Z,33.40
2019-02-21T13:59:54.433Z,34.17
2019-02-21T14:03:57.694Z,31.77
2019-02-21T14:08:01.267Z,28.43
2019-02-21T14:12:04.686Z,26.33
2019-02-21T14:16:08.436Z,27.93
2019-02-21T14:20:11.814Z,29.93
2019-02-21T14:24:15.818Z,30.60
2019-02-21T14:28:20.287Z,29.90
2019-02-21T14:32:24.286Z,31.83
2019-02-21T14:36:28.282Z,28.67
2019-02-21T14:40:31.587Z,33.03
2019-02-21T14:44:35.338Z,32.97
2019-02-21T14:48:38.631Z,38.97
2019-02-21T14:52:41.990Z,39.50
2019-02-21T14:56:45.278Z,39.50
2019-02-21T15:00:49.097Z,41.93
2019-02-21T15:04:52.842Z,44.20
2019-02-21T15:08:56.138Z,42.47
2019-02-21T15:12:59.434Z,44.63
2019-02-21T15:17:03.900Z,45.00
2019-02-21T15:21:07.381Z,45.80
2019-02-21T15:25:11.199Z,51.90
2019-02-21T15:29:14.499Z,48.93
2019-02-21T15:33:17.805Z,49.57
2019-02-21T15:37:21.411Z,49.43
2019-02-21T15:41:24.708Z,53.57
2019-02-21T15:45:28.479Z,52.83
2019-02-21T15:49:31.782Z,49.97
2019-02-21T15:53:35.751Z,49.80
2019-02-21T15:57:39.814Z,47.00
2019-02-21T16:01:47.499Z,49.47
2019-02-21T16:05:49.033Z,52.50
2019-02-21T16:09:52.330Z,50.50
2019-02-21T16:14:03.348Z,50.63
2019-02-21T16:18:00.634Z,51.17
2019-02-21T16:22:04.386Z,57.77
2019-02-21T16:26:08.217Z,54.07
2019-02-21T16:30:12.765Z,53.83
2019-02-21T16:34:16.615Z,53.80
2019-02-21T16:38:19.914Z,49.00
2019-02-21T16:42:23.215Z,49.87
2019-02-21T16:46:26.546Z,52.00
2019-02-21T16:50:30.349Z,52.57
2019-02-21T16:54:34.544Z,50.67
2019-02-21T16:58:37.834Z,53.53
2019-02-21T17:02:41.143Z,48.87
2019-02-21T17:06:44.434Z,47.50
2019-02-21T17:10:48.158Z,48.50
2019-02-21T17:14:51.470Z,50.63
2019-02-21T17:18:56.047Z,51.97
2019-02-21T17:22:59.439Z,52.97
2019-02-21T17:27:03.188Z,53.30
2019-02-21T17:31:06.719Z,55.67
2019-02-21T17:35:10.011Z,50.63
2019-02-21T17:39:13.314Z,50.87
2019-02-21T17:43:16.623Z,52.33
2019-02-21T17:47:19.918Z,52.27
2019-02-21T17:51:23.227Z,52.70
2019-02-21T17:55:27.459Z,49.70
2019-02-21T17:59:30.742Z,50.10
2019-02-21T18:03:34.475Z,49.90
2019-02-21T18:07:37.786Z,50.10
2019-02-21T18:11:41.504Z,48.10
2019-02-21T18:15:45.130Z,47.87
2019-02-21T18:19:48.446Z,48.47
2019-02-21T18:23:52.026Z,50.97
2019-02-21T18:27:56.107Z,50.90
2019-02-21T18:32:00.231Z,49.93
2019-02-21T18:36:04.107Z,53.20
2019-02-21T18:40:17.000Z,51.17
2019-02-21T18:44:13.282Z,54.47
2019-02-21T18:48:17.286Z,52.70
2019-02-21T18:52:20.922Z,53.60
2019-02-21T18:56:24.217Z,57.47
2019-02-21T19:00:27.616Z,58.03
2019-02-21T19:04:30.911Z,60.30
2019-02-21T19:08:34.238Z,61.77
2019-02-21T19:12:38.328Z,59.97
2019-02-21T19:16:42.307Z,54.60
2019-02-21T19:20:45.605Z,54.43
2019-02-21T19:24:48.895Z,55.00
2019-02-21T19:28:52.647Z,55.97
2019-02-21T19:32:56.466Z,58.37
2019-02-21T19:37:00.207Z,55.37
2019-02-21T19:41:03.570Z,57.30
2019-02-21T19:45:07.177Z,52.37
2019-02-21T19:49:10.912Z,50.50
2019-02-21T19:53:14.543Z,53.90
2019-02-21T19:57:18.265Z,50.53
2019-02-21T20:01:22.383Z,53.20
2019-02-21T20:05:26.536Z,55.07
2019-02-21T20:09:29.842Z,56.53
2019-02-21T20:13:33.138Z,58.50
2019-02-21T20:17:36.471Z,55.80
2019-02-21T20:21:39.759Z,61.30
2019-02-21T20:25:44.050Z,59.03
2019-02-21T20:29:47.867Z,54.73
2019-02-21T20:33:51.284Z,59.90
2019-02-21T20:37:54.646Z,57.87
2019-02-21T20:41:59.009Z,59.27
2019-02-21T20:46:02.388Z,59.47
2019-02-21T20:50:06.403Z,61.30
2019-02-21T20:54:12.777Z,62.70
2019-02-21T20:58:15.795Z,56.77
2019-02-21T21:02:19.499Z,58.83
2019-02-21T21:06:22.798Z,67.93
2019-02-21T21:10:26.544Z,60.10
2019-02-21T21:14:29.830Z,58.97
2019-02-21T21:18:33.137Z,57.57
2019-02-21T21:22:36.443Z,58.57
2019-02-21T21:26:39.738Z,63.80
2019-02-21T21:30:43.478Z,68.03
2019-02-21T21:34:47.046Z,71.67
2019-02-21T21:38:54.131Z,64.33
2019-02-21T21:42:56.118Z,60.50
2019-02-21T21:46:59.422Z,58.83
2019-02-21T21:51:03.156Z,57.17
2019-02-21T21:55:06.593Z,58.13
2019-02-21T21:59:10.154Z,66.30
2019-02-21T22:03:13.447Z,66.13
2019-02-21T22:07:17.185Z,64.27
2019-02-21T22:11:20.543Z,66.50
2019-02-21T22:15:23.906Z,67.63
2019-02-21T22:19:27.210Z,67.23
2019-02-21T22:23:30.939Z,60.87
2019-02-21T22:27:34.691Z,64.33
2019-02-21T22:31:37.999Z,58.13
2019-02-21T22:35:41.304Z,67.60
2019-02-21T22:39:44.619Z,60.07
2019-02-21T22:43:47.893Z,65.83
2019-02-21T22:47:51.937Z,63.50
2019-02-21T22:51:55.794Z,79.53
2019-02-21T22:55:59.579Z,59.17
2019-02-21T23:00:04.455Z,46.83
2019-02-21T23:04:24.024Z,50.33
2019-02-21T23:08:43.587Z,51.77
2019-02-21T23:12:47.396Z,54.47
2019-02-21T23:16:51.126Z,49.63
2019-02-21T23:20:54.484Z,58.33
2019-02-21T23:24:57.766Z,47.97
2019-02-21T23:29:01.065Z,55.60
2019-02-21T23:33:04.358Z,65.97
2019-02-21T23:37:07.670Z,62.27
2019-02-21T23:41:11.414Z,57.77
2019-02-21T23:45:14.722Z,66.23
2019-02-21T23:49:18.795Z,60.27
2019-02-21T23:53:22.531Z,53.67
2019-02-21T23:57:25.830Z,56.13
